Time;durP1;ratioP1;P1;durP2;ratioP2;P2;SDS_P1;SDS_P2;PMS_P1;PMS_P2;Temp;Humidity;BMP_temperature;BMP_pressure;BME280_temperature;BME280_humidity;BME280_pressure;Samples;Min_cycle;Max_cycle;Signal;HPM_P1;HPM_P2
2022/04/12 00:00:18;;;;;;;6.28;5.97;;;;;;;2.17;84.33;100934.91;5031864;28;20397;-64
2022/04/12 00:02:44;;;;;;;6.60;6.30;;;;;;;2.30;84.16;100945.31;5032573;28;20361;-64
2022/04/12 00:05:11;;;;;;;6.25;5.95;;;;;;;2.28;84.18;100943.75;5070487;28;20021;-64
2022/04/12 00:07:38;;;;;;;9.55;8.98;;;;;;;2.10;84.38;100936.28;5062680;28;20017;-64
2022/04/12 00:10:05;;;;;;;6.10;5.80;;;;;;;2.13;84.50;100946.53;5039431;28;20108;-64
2022/04/12 00:12:30;;;;;;;5.90;5.70;;;;;;;2.08;84.91;100946.03;5042727;28;20057;-63
2022/04/12 00:14:55;;;;;;;5.80;5.60;;;;;;;2.05;85.03;100938.38;5035891;28;20102;-63
2022/04/12 00:20:06;;;;;;;5.90;5.70;;;;;;;2.06;85.70;100941.88;5031907;28;20492;-64
2022/04/12 00:22:31;;;;;;;6.18;5.88;;;;;;;2.01;85.03;100944.78;5031707;28;20814;-63
2022/04/12 00:24:59;;;;;;;6.20;5.90;;;;;;;1.97;85.50;100937.25;5040204;28;20164;-64
2022/04/12 00:27:25;;;;;;;6.10;5.85;;;;;;;1.98;85.91;100929.28;5039896;28;20029;-63
2022/04/12 00:29:51;;;;;;;6.07;5.78;;;;;;;1.97;85.50;100942.50;5031869;28;20052;-63
2022/04/12 00:32:16;;;;;;;5.85;5.63;;;;;;;1.92;86.55;100941.06;5034951;28;20393;-63
2022/04/12 00:34:42;;;;;;;6.00;5.70;;;;;;;1.86;86.92;100936.25;5073773;28;20036;-63
2022/04/12 00:37:08;;;;;;;5.88;5.60;;;;;;;1.84;86.90;100939.94;5045898;28;20167;-63
2022/04/12 00:39:34;;;;;;;6.20;5.90;;;;;;;1.84;87.44;100938.16;5034415;28;20025;-62
2022/04/12 00:42:01;;;;;;;6.28;5.97;;;;;;;1.79;88.04;100942.88;5036342;28;20034;-63
2022/04/12 00:44:26;;;;;;;5.90;5.70;;;;;;;1.80;88.86;100934.06;5035851;28;20033;-63
2022/04/12 00:46:52;;;;;;;5.90;5.70;;;;;;;1.76;87.83;100945.69;5053872;28;20029;-63
2022/04/12 00:49:17;;;;;;;6.20;5.90;;;;;;;1.65;88.71;100924.69;5042867;28;20030;-63
2022/04/12 00:51:44;;;;;;;6.57;6.28;;;;;;;1.67;89.27;100938.47;5054098;28;20029;-64
2022/04/12 00:54:10;;;;;;;6.47;6.18;;;;;;;1.62;89.82;100940.59;5049270;28;20504;-64
2022/04/12 00:56:37;;;;;;;6.50;6.20;;;;;;;1.60;90.18;100939.84;5034799;28;20053;-63
2022/04/12 00:59:03;;;;;;;6.20;5.90;;;;;;;1.61;89.87;100941.53;5051479;28;20030;-64
2022/04/12 01:01:28;;;;;;;6.10;5.80;;;;;;;1.60;89.99;100938.06;5035206;28;20048;-64
2022/04/12 01:03:54;;;;;;;6.18;5.88;;;;;;;1.57;90.18;100940.91;5047918;28;20079;-63
2022/04/12 01:06:19;;;;;;;6.70;6.40;;;;;;;1.56;90.50;100934.03;5035227;28;20059;-63
2022/04/12 01:08:45;;;;;;;6.57;6.28;;;;;;;1.56;90.75;100930.56;5034880;28;20033;-63
2022/04/12 01:11:12;;;;;;;6.28;5.97;;;;;;;1.58;90.34;100936.53;5063996;28;20113;-64
2022/04/12 01:13:37;;;;;;;6.85;6.55;;;;;;;1.53;90.65;100925.53;5050893;28;20048;-64
2022/04/12 01:16:07;;;;;;;6.28;5.97;;;;;;;1.56;91.02;100936.63;5053993;28;20067;-63
2022/04/12 01:18:34;;;;;;;6.50;6.20;;;;;;;1.55;90.88;100932.34;5065190;28;20084;-64
2022/04/12 01:21:00;;;;;;;6.32;6.03;;;;;;;1.48;91.80;100922.44;5054732;28;20056;-64
2022/04/12 01:23:30;;;;;;;6.50;6.20;;;;;;;1.49;91.85;100930.16;5040868;28;20060;-64
2022/04/12 01:25:56;;;;;;;6.30;6.00;;;;;;;1.49;91.86;100935.38;5052911;28;20533;-64
2022/04/12 01:28:21;;;;;;;6.20;5.90;;;;;;;1.48;92.19;100925.88;5074521;28;20027;-63
2022/04/12 01:30:47;;;;;;;6.00;5.70;;;;;;;1.47;92.02;100923.34;5063039;28;20033;-63
2022/04/12 01:33:12;;;;;;;6.30;6.00;;;;;;;1.41;92.45;100924.63;5061604;28;20028;-64
2022/04/12 01:35:38;;;;;;;6.25;5.95;;;;;;;1.44;92.25;100934.84;5074555;28;20468;-63
2022/04/12 01:38:04;;;;;;;6.45;6.15;;;;;;;1.43;91.84;100924.50;5037187;28;20021;-63
2022/04/12 01:40:29;;;;;;;6.53;6.22;;;;;;;1.44;92.45;100929.63;5034068;28;20565;-64
2022/04/12 01:42:55;;;;;;;6.70;6.40;;;;;;;1.36;92.61;100927.53;5082187;28;20551;-63
2022/04/12 01:45:21;;;;;;;6.25;5.95;;;;;;;1.38;92.33;100927.44;5053992;28;20021;-63
2022/04/12 01:47:47;;;;;;;6.20;5.90;;;;;;;1.36;93.24;100930.16;5037171;28;20400;-63
2022/04/12 01:50:12;;;;;;;6.85;6.55;;;;;;;1.36;93.61;100929.31;5042618;28;20115;-62
2022/04/12 01:52:37;;;;;;;6.80;6.50;;;;;;;1.29;93.76;100922.84;5033814;28;20076;-63
2022/04/12 01:55:04;;;;;;;6.60;6.30;;;;;;;1.33;93.58;100925.16;5033687;28;20033;-63
2022/04/12 01:57:30;;;;;;;6.57;6.28;;;;;;;1.31;93.57;100931.41;5043750;28;20047;-64
2022/04/12 01:59:57;;;;;;;6.40;6.10;;;;;;;1.28;94.31;100922.00;5070653;28;20359;-64
2022/04/12 02:02:22;;;;;;;6.20;5.90;;;;;;;1.27;94.43;100928.19;5034323;28;20033;-62
2022/04/12 02:04:48;;;;;;;6.50;6.20;;;;;;;1.25;94.16;100935.31;5049581;28;20040;-64
2022/04/12 02:07:13;;;;;;;6.60;6.30;;;;;;;1.23;94.12;100931.94;5045491;28;20481;-62
2022/04/12 02:09:39;;;;;;;6.15;5.85;;;;;;;1.24;94.81;100930.16;5053602;28;20025;-63
2022/04/12 02:12:05;;;;;;;6.00;5.70;;;;;;;1.19;94.47;100933.09;5052470;28;20025;-65
2022/04/12 02:14:31;;;;;;;6.35;6.05;;;;;;;1.15;94.92;100936.03;5047758;28;20108;-63
2022/04/12 02:16:56;;;;;;;6.20;5.90;;;;;;;1.18;95.22;100928.81;5032241;28;20905;-63
2022/04/12 02:19:22;;;;;;;6.38;6.07;;;;;;;1.18;95.15;100930.59;5036580;28;20033;-65
2022/04/12 02:21:47;;;;;;;6.10;5.80;;;;;;;1.12;94.77;100939.69;5052032;28;20135;-63
2022/04/12 02:24:13;;;;;;;6.10;5.80;;;;;;;1.13;95.29;100940.53;5053861;28;20145;-63
2022/04/12 02:26:39;;;;;;;6.20;5.90;;;;;;;1.13;95.75;100938.75;5068752;28;20051;-64
2022/04/12 02:29:06;;;;;;;6.38;6.07;;;;;;;1.08;96.01;100930.38;5063195;28;20086;-64
2022/04/12 02:31:33;;;;;;;6.40;6.10;;;;;;;1.07;95.79;100939.16;5053585;28;20514;-63
2022/04/12 02:33:58;;;;;;;6.30;6.00;;;;;;;1.04;96.10;100942.81;5068795;28;20475;-64
2022/04/12 02:36:24;;;;;;;7.65;7.25;;;;;;;1.06;95.83;100945.31;5069599;28;20039;-64
2022/04/12 02:38:49;;;;;;;6.32;6.03;;;;;;;1.04;96.15;100936.75;5053011;28;20103;-64
2022/04/12 02:41:14;;;;;;;6.30;6.00;;;;;;;1.00;96.65;100941.34;5053569;28;20032;-63
2022/04/12 02:43:40;;;;;;;6.30;6.00;;;;;;;0.98;96.46;100939.78;5039476;28;20036;-63
2022/04/12 02:46:05;;;;;;;6.35;6.05;;;;;;;1.02;96.43;100942.06;5033116;28;20029;-63
2022/04/12 02:48:31;;;;;;;6.20;5.90;;;;;;;1.00;96.69;100938.72;5033018;28;20076;-64
2022/04/12 02:50:56;;;;;;;6.13;5.82;;;;;;;0.98;97.04;100932.78;5033133;28;20037;-63
2022/04/12 02:53:22;;;;;;;6.00;5.72;;;;;;;0.94;96.43;100938.28;5037410;28;20074;-63
2022/04/12 02:55:47;;;;;;;6.40;6.10;;;;;;;0.91;97.21;100939.34;5052514;28;20032;-64
2022/04/12 02:58:13;;;;;;;6.60;6.30;;;;;;;0.90;97.17;100945.50;5045332;28;20060;-64
2022/04/12 03:00:38;;;;;;;6.45;6.15;;;;;;;0.90;96.72;100935.06;5052485;28;20022;-64
2022/04/12 03:03:04;;;;;;;6.30;6.00;;;;;;;0.87;96.92;100939.63;5032623;28;20029;-64
2022/04/12 03:05:29;;;;;;;6.40;6.10;;;;;;;0.87;96.78;100939.63;5051660;28;20074;-63
2022/04/12 03:07:55;;;;;;;6.53;6.22;;;;;;;0.88;97.12;100941.31;5052510;28;20222;-62
2022/04/12 03:10:20;;;;;;;7.38;6.97;;;;;;;0.85;97.52;100946.75;5048834;28;20104;-65
2022/04/12 03:12:46;;;;;;;6.95;6.65;;;;;;;0.82;97.17;100951.25;5051917;28;20074;-65
2022/04/12 03:15:11;;;;;;;6.63;6.32;;;;;;;0.82;97.82;100956.47;5047781;28;20709;-64
2022/04/12 03:17:38;;;;;;;6.38;6.07;;;;;;;0.78;97.21;100941.09;5032248;28;20025;-64
2022/04/12 03:20:03;;;;;;;6.40;6.10;;;;;;;0.75;98.20;100949.97;5052004;28;20028;-63
2022/04/12 03:22:29;;;;;;;6.38;6.07;;;;;;;0.80;98.04;100953.09;5052059;28;20029;-64
2022/04/12 03:24:55;;;;;;;6.30;6.00;;;;;;;0.81;97.52;100949.56;5047154;28;20029;-65
2022/04/12 03:27:20;;;;;;;6.32;6.03;;;;;;;0.83;97.71;100945.09;5072051;28;20021;-64
2022/04/12 03:29:46;;;;;;;6.25;5.95;;;;;;;0.84;97.68;100948.53;5052074;28;20123;-64
2022/04/12 03:32:11;;;;;;;6.25;5.95;;;;;;;0.84;97.77;100945.91;5059528;28;20480;-64
2022/04/12 03:34:39;;;;;;;6.32;6.03;;;;;;;0.89;97.63;100945.63;5059167;28;20472;-64
2022/04/12 03:37:05;;;;;;;6.78;6.47;;;;;;;0.94;97.73;100952.19;5051907;28;20500;-65
2022/04/12 03:39:30;;;;;;;7.13;6.72;;;;;;;1.09;97.08;100950.31;5040939;28;20063;-64
2022/04/12 03:41:56;;;;;;;7.65;7.25;;;;;;;1.51;94.49;100946.56;5052642;28;20028;-63
2022/04/12 03:44:21;;;;;;;6.40;6.10;;;;;;;1.93;92.13;100937.50;5053410;28;20029;-64
2022/04/12 03:46:47;;;;;;;6.32;6.03;;;;;;;2.24;89.41;100951.00;5049898;28;20039;-63
2022/04/12 03:49:12;;;;;;;6.50;6.20;;;;;;;2.57;88.80;100955.56;5053750;28;20040;-63
2022/04/12 03:51:38;;;;;;;6.13;5.82;;;;;;;2.93;86.44;100949.34;5052972;28;20036;-63
2022/04/12 03:54:04;;;;;;;6.32;6.03;;;;;;;3.31;83.24;100953.50;5041584;28;20026;-64
2022/04/12 03:56:31;;;;;;;6.20;5.90;;;;;;;3.42;83.09;100953.50;5060380;28;20128;-65
2022/04/12 03:58:59;;;;;;;6.43;6.13;;;;;;;4.16;79.48;100962.50;5051059;28;20036;-64
2022/04/12 04:01:28;;;;;;;6.03;5.72;;;;;;;4.58;76.75;100965.28;5046136;28;20066;-63
2022/04/12 04:03:55;;;;;;;5.88;5.65;;;;;;;5.04;75.82;100964.09;5063137;28;20458;-65
2022/04/12 04:06:22;;;;;;;6.60;6.30;;;;;;;5.50;73.30;100970.72;5039632;28;20037;-65
2022/04/12 04:08:48;;;;;;;6.05;5.78;;;;;;;5.98;70.24;100964.84;5051144;28;20029;-65
2022/04/12 04:11:13;;;;;;;5.90;5.70;;;;;;;6.95;67.48;100973.69;5051801;28;20032;-66
2022/04/12 04:13:39;;;;;;;6.93;6.63;;;;;;;8.67;60.99;100980.22;5050864;28;20026;-66
2022/04/12 04:16:05;;;;;;;6.35;6.05;;;;;;;10.19;53.72;100982.31;5053013;28;20033;-66
2022/04/12 04:18:34;;;;;;;6.53;6.22;;;;;;;11.38;50.20;100983.75;5051214;28;20032;-65
2022/04/12 04:21:00;;;;;;;7.32;7.03;;;;;;;11.69;48.11;100984.72;5057222;28;20391;-65
2022/04/12 04:23:26;;;;;;;6.40;6.10;;;;;;;11.93;46.80;100977.69;5064278;28;20028;-66
2022/04/12 04:25:52;;;;;;;7.00;6.70;;;;;;;12.40;46.02;100980.25;5060135;28;20040;-67
2022/04/12 04:28:21;;;;;;;6.78;6.47;;;;;;;12.50;44.52;100977.38;5048073;28;20079;-66
2022/04/12 04:30:49;;;;;;;7.00;6.70;;;;;;;13.50;42.72;100981.53;5051719;28;20570;-66
2022/04/12 04:33:17;;;;;;;6.90;6.60;;;;;;;13.96;41.14;100991.22;5062375;28;20142;-66
2022/04/12 04:35:46;;;;;;;7.30;7.00;;;;;;;13.87;41.23;100989.66;5071144;28;20028;-65
2022/04/12 04:38:12;;;;;;;7.70;7.40;;;;;;;14.27;39.81;100982.97;5054957;28;20486;-66
2022/04/12 04:40:37;;;;;;;7.55;7.25;;;;;;;14.88;39.35;100981.59;5030546;28;20100;-66
2022/04/12 04:43:05;;;;;;;7.20;6.90;;;;;;;14.98;37.86;100989.25;5050566;28;20075;-65
2022/04/12 04:45:30;;;;;;;7.50;7.20;;;;;;;15.32;37.88;100995.72;5036533;28;20146;-66
2022/04/12 04:47:58;;;;;;;8.15;7.78;;;;;;;15.85;35.78;100994.25;5051036;28;20108;-65
2022/04/12 04:50:26;;;;;;;7.72;7.43;;;;;;;15.73;36.33;101002.00;5051210;28;20044;-66
2022/04/12 04:52:51;;;;;;;8.52;8.13;;;;;;;16.97;34.79;100990.31;5051290;28;20027;-65
2022/04/12 04:55:18;;;;;;;7.57;7.28;;;;;;;16.91;34.45;100989.25;5050283;28;20504;-66
2022/04/12 04:57:45;;;;;;;7.30;7.00;;;;;;;17.25;33.93;101006.16;5056522;28;20128;-65
2022/04/12 05:00:16;;;;;;;8.43;8.02;;;;;;;17.95;32.97;101007.31;5043258;28;20028;-66
2022/04/12 05:02:48;;;;;;;7.38;7.07;;;;;;;19.08;30.43;101004.03;5052538;28;20105;-66
2022/04/12 05:05:14;;;;;;;7.45;7.15;;;;;;;18.17;31.85;101006.00;5062920;28;20025;-67
2022/04/12 05:07:41;;;;;;;7.15;6.85;;;;;;;16.91;33.77;101002.66;5065920;28;20035;-66
2022/04/12 05:10:08;;;;;;;7.50;7.20;;;;;;;17.74;32.03;101018.31;5058735;28;20028;-65
2022/04/12 05:12:34;;;;;;;7.90;7.60;;;;;;;18.82;30.70;101010.44;5048598;28;20033;-66
2022/04/12 05:14:59;;;;;;;7.47;7.18;;;;;;;19.03;30.39;101013.59;5049122;28;20025;-65
2022/04/12 05:17:28;;;;;;;7.85;7.55;;;;;;;19.28;29.53;101007.41;5049505;28;20115;-65
2022/04/12 05:19:58;;;;;;;7.50;7.20;;;;;;;18.93;29.76;101018.63;5049944;28;20055;-66
2022/04/12 05:22:25;;;;;;;7.70;7.40;;;;;;;20.09;28.03;101023.38;5036219;28;20095;-65
2022/04/12 05:24:50;;;;;;;7.28;6.97;;;;;;;19.66;28.79;101019.91;5033268;28;20033;-65
2022/04/12 05:27:18;;;;;;;7.38;7.07;;;;;;;20.58;27.83;101021.53;5064230;28;20028;-65
2022/04/12 05:29:43;;;;;;;7.70;7.40;;;;;;;19.75;28.87;101022.06;5054782;28;20473;-66
2022/04/12 05:32:10;;;;;;;7.60;7.30;;;;;;;20.60;27.86;101026.69;5039603;28;20044;-65
2022/04/12 05:34:40;;;;;;;7.63;7.32;;;;;;;20.31;27.82;101022.91;5052165;28;20021;-65
2022/04/12 05:37:05;;;;;;;7.57;7.28;;;;;;;19.98;28.70;101029.50;5042513;28;20503;-65
2022/04/12 05:39:32;;;;;;;7.70;7.40;;;;;;;20.07;27.88;101009.31;5053199;28;20037;-66
2022/04/12 05:42:02;;;;;;;7.50;7.20;;;;;;;19.25;29.26;101027.50;5051801;28;20100;-66
2022/04/12 05:44:34;;;;;;;7.70;7.40;;;;;;;20.40;28.39;101030.44;5051026;28;20031;-69
2022/04/12 05:47:01;;;;;;;7.43;7.13;;;;;;;19.80;28.56;101019.53;5053740;28;20021;-66
2022/04/12 05:49:28;;;;;;;7.93;7.63;;;;;;;19.88;28.16;101021.94;5036774;28;20045;-66
2022/04/12 05:51:54;;;;;;;7.00;6.70;;;;;;;19.97;28.45;101019.75;5034174;28;20029;-66
2022/04/12 05:54:20;;;;;;;7.68;7.38;;;;;;;19.97;28.66;101019.75;5053172;28;20028;-65
2022/04/12 05:56:45;;;;;;;7.30;7.00;;;;;;;19.56;28.73;101021.22;5055516;28;20044;-66
2022/04/12 05:59:11;;;;;;;7.50;7.20;;;;;;;18.83;29.55;101017.47;5043723;28;20040;-66
2022/04/12 06:01:38;;;;;;;7.50;7.20;;;;;;;20.21;28.42;101025.31;5032337;28;20029;-67
2022/04/12 06:04:04;;;;;;;7.45;7.15;;;;;;;19.98;28.97;101024.13;5032361;28;20108;-66
2022/04/12 06:06:32;;;;;;;7.30;7.00;;;;;;;20.31;28.22;101026.41;5044748;28;20048;-65
2022/04/12 06:08:58;;;;;;;7.20;6.90;;;;;;;20.20;27.89;101019.09;5053477;28;20021;-66
2022/04/12 06:11:23;;;;;;;7.70;7.40;;;;;;;19.48;28.78;101026.88;5040630;28;20021;-66
2022/04/12 06:13:49;;;;;;;7.57;7.28;;;;;;;20.07;29.23;101024.66;5033160;28;20370;-66
2022/04/12 06:16:14;;;;;;;7.70;7.40;;;;;;;19.57;29.11;101025.56;5033394;28;20029;-66
2022/04/12 06:18:40;;;;;;;7.05;6.75;;;;;;;19.16;29.37;101018.03;5041445;28;20017;-65
2022/04/12 06:21:05;;;;;;;8.20;7.90;;;;;;;18.04;30.78;101022.16;5046442;28;20041;-66
2022/04/12 06:23:30;;;;;;;7.85;7.55;;;;;;;20.43;28.43;101032.69;5043232;28;20024;-67
2022/04/12 06:25:56;;;;;;;7.38;7.07;;;;;;;19.92;28.06;101022.31;5057514;28;20040;-67
2022/04/12 06:28:21;;;;;;;8.30;7.95;;;;;;;20.41;27.60;101023.16;5056613;28;20380;-64
2022/04/12 06:30:50;;;;;;;7.30;7.00;;;;;;;19.41;28.92;101020.72;5053166;28;20047;-66
2022/04/12 06:33:15;;;;;;;7.40;7.10;;;;;;;20.34;28.13;101027.81;5056553;28;20059;-66
2022/04/12 06:35:41;;;;;;;7.60;7.30;;;;;;;21.09;26.97;101020.16;5072884;28;20495;-65
2022/04/12 06:38:08;;;;;;;7.22;6.93;;;;;;;21.31;27.15;101019.63;5073531;28;20100;-65
2022/04/12 06:40:35;;;;;;;7.32;7.03;;;;;;;20.75;26.51;101015.50;5061530;28;20033;-64
2022/04/12 06:43:01;;;;;;;7.30;7.00;;;;;;;18.86;29.08;101007.09;5053109;28;20101;-64
2022/04/12 06:45:27;;;;;;;7.35;7.05;;;;;;;19.20;29.09;101005.81;5053246;28;20117;-65
2022/04/12 06:47:58;;;;;;;7.32;7.03;;;;;;;19.60;28.59;101018.91;5052024;28;20025;-65
2022/04/12 06:50:25;;;;;;;7.70;7.40;;;;;;;19.73;28.17;101018.78;5050290;28;20090;-66
2022/04/12 06:52:52;;;;;;;7.07;6.78;;;;;;;18.69;30.07;101024.78;5052801;28;20460;-66
2022/04/12 06:55:17;;;;;;;7.20;6.90;;;;;;;21.30;26.87;101017.97;5066206;28;20030;-64
2022/04/12 06:57:43;;;;;;;7.50;7.20;;;;;;;21.07;26.82;101024.94;5072155;28;20119;-64
2022/04/12 07:00:10;;;;;;;7.20;6.90;;;;;;;21.86;25.91;101027.34;5072555;28;20104;-65
2022/04/12 07:02:37;;;;;;;6.95;6.65;;;;;;;21.02;26.29;101024.00;5071443;28;20381;-65
2022/04/12 07:05:07;;;;;;;7.20;6.90;;;;;;;19.00;27.95;101016.72;5064336;28;20035;-65
2022/04/12 07:07:35;;;;;;;7.32;7.03;;;;;;;19.45;28.13;101021.09;5052582;28;20058;-66
2022/04/12 07:10:00;;;;;;;7.22;6.93;;;;;;;19.32;28.02;101014.81;5044052;28;20034;-65
2022/04/12 07:12:26;;;;;;;7.32;7.03;;;;;;;19.74;27.04;101014.22;5032127;28;20035;-66
2022/04/12 07:14:51;;;;;;;7.55;7.25;;;;;;;20.32;26.51;101019.97;5032155;28;20476;-66
2022/04/12 07:17:17;;;;;;;7.30;7.00;;;;;;;19.81;27.52;101005.03;5030799;28;20038;-64
2022/04/12 07:19:43;;;;;;;7.40;7.10;;;;;;;21.12;26.22;101014.28;5049106;28;20512;-66
2022/04/12 07:22:09;;;;;;;7.10;6.80;;;;;;;20.74;26.69;101021.94;5035374;28;20025;-66
2022/04/12 07:24:35;;;;;;;7.57;7.28;;;;;;;20.40;26.67;101011.56;5054737;28;20033;-65
2022/04/12 07:27:01;;;;;;;7.07;6.78;;;;;;;20.96;26.45;101021.19;5065435;28;20017;-65
2022/04/12 07:29:27;;;;;;;7.20;6.90;;;;;;;19.93;27.46;101017.75;5045096;28;20496;-66
2022/04/12 07:31:52;;;;;;;7.68;7.38;;;;;;;20.24;27.05;101011.38;5042286;28;20113;-65
2022/04/12 07:34:18;;;;;;;7.03;6.72;;;;;;;20.12;26.73;101020.25;5054510;28;20021;-67
2022/04/12 07:36:47;;;;;;;7.20;6.90;;;;;;;21.83;24.68;101015.16;5066283;28;20461;-68
2022/04/12 07:39:14;;;;;;;7.10;6.80;;;;;;;18.92;28.49;101022.34;5054704;28;20116;-68
2022/04/12 07:41:40;;;;;;;7.15;6.85;;;;;;;19.66;26.67;101019.91;5051503;28;20037;-69
2022/04/12 07:44:06;;;;;;;7.40;7.10;;;;;;;19.93;27.22;101013.19;5051003;28;20078;-67
2022/04/12 07:46:31;;;;;;;7.18;6.88;;;;;;;18.76;27.63;101033.63;5053904;28;20102;-68
2022/04/12 07:48:57;;;;;;;7.13;6.82;;;;;;;18.77;27.90;101019.16;5047853;28;20025;-75
2022/04/12 07:51:23;;;;;;;7.40;7.10;;;;;;;19.55;27.17;101029.50;5057249;28;20023;-68
2022/04/12 07:53:49;;;;;;;7.05;6.75;;;;;;;19.66;26.57;101015.34;5044212;28;20024;-69
2022/04/12 07:56:15;;;;;;;7.10;6.80;;;;;;;15.38;32.46;101019.84;5055698;28;20420;-67
2022/04/12 07:58:40;;;;;;;6.90;6.60;;;;;;;16.50;31.38;101026.84;5038987;28;20397;-68
2022/04/12 08:01:06;;;;;;;7.53;7.22;;;;;;;15.24;33.34;101023.41;5055779;28;20596;-69
2022/04/12 08:03:32;;;;;;;7.50;7.20;;;;;;;17.89;29.30;101021.59;5062114;28;20033;-70
2022/04/12 08:05:58;;;;;;;7.10;6.80;;;;;;;17.60;29.33;101028.22;5052216;28;20029;-68
2022/04/12 08:08:23;;;;;;;7.25;6.95;;;;;;;16.73;30.18;101005.91;5064600;28;20514;-68
2022/04/12 08:10:49;;;;;;;7.05;6.75;;;;;;;17.09;30.57;101010.91;5053737;28;20016;-66
2022/04/12 08:13:14;;;;;;;7.38;7.07;;;;;;;15.51;32.56;101004.91;5064336;28;20021;-68
2022/04/12 08:15:40;;;;;;;7.60;7.30;;;;;;;16.41;30.31;101006.63;5051192;28;20028;-67
2022/04/12 08:18:06;;;;;;;7.10;6.80;;;;;;;15.25;32.31;100994.84;5043361;28;20466;-68
2022/04/12 08:20:32;;;;;;;7.35;7.05;;;;;;;14.86;31.38;100999.66;5064859;28;20021;-68
2022/04/12 08:22:59;;;;;;;8.05;7.65;;;;;;;15.02;31.96;100995.91;5055119;28;20042;-68
2022/04/12 08:25:25;;;;;;;8.02;7.63;;;;;;;15.68;31.02;100996.41;5057314;28;20091;-68
2022/04/12 08:27:50;;;;;;;7.28;6.97;;;;;;;15.34;31.80;101004.38;5042605;28;20480;-67
2022/04/12 08:30:16;;;;;;;7.78;7.47;;;;;;;14.52;32.25;101003.00;5053851;28;20025;-68
2022/04/12 08:32:42;;;;;;;7.57;7.28;;;;;;;15.28;31.63;101005.16;5046778;28;20040;-68
2022/04/12 08:35:08;;;;;;;6.80;6.50;;;;;;;16.25;30.50;101010.50;5044410;28;20028;-67
2022/04/12 08:37:33;;;;;;;7.25;6.95;;;;;;;15.35;31.70;101014.88;5052393;28;20036;-67
2022/04/12 08:39:59;;;;;;;7.47;7.18;;;;;;;12.93;34.64;101003.38;5049919;28;20033;-68
2022/04/12 08:42:25;;;;;;;7.65;7.35;;;;;;;12.69;34.64;101003.53;5048769;28;20111;-70
2022/04/12 08:44:51;;;;;;;7.50;7.20;;;;;;;13.22;33.59;100992.00;5044757;28;20051;-69
2022/04/12 08:47:18;;;;;;;7.20;6.90;;;;;;;12.60;33.80;100986.78;5054045;28;20396;-68
2022/04/12 08:49:45;;;;;;;7.93;7.53;;;;;;;13.20;32.97;101009.16;5037878;28;20029;-70
2022/04/12 08:52:13;;;;;;;7.00;6.70;;;;;;;13.68;32.91;101007.03;5051829;28;20543;-69
2022/04/12 08:54:40;;;;;;;6.85;6.55;;;;;;;12.29;34.59;100976.16;5056083;28;20506;-69
2022/04/12 08:57:08;;;;;;;6.78;6.47;;;;;;;13.16;33.81;100997.19;5053054;28;20056;-71
2022/04/12 08:59:33;;;;;;;7.35;7.05;;;;;;;11.35;36.32;100987.59;5047781;28;20032;-71
2022/04/12 09:01:59;;;;;;;7.45;7.15;;;;;;;10.96;37.18;100998.09;5061175;28;20029;-68
2022/04/12 09:04:26;;;;;;;7.35;7.05;;;;;;;10.94;37.64;100998.25;5064469;28;20585;-70
2022/04/12 09:06:59;;;;;;;8.65;8.25;;;;;;;13.65;32.68;101008.22;5044851;28;20530;-70
2022/04/12 09:09:29;;;;;;;7.45;7.15;;;;;;;13.58;32.79;100975.31;5047990;28;20112;-70
2022/04/12 09:12:09;;;;;;;7.28;6.97;;;;;;;12.39;35.02;100990.06;5056225;28;20029;-69
2022/04/12 09:14:41;;;;;;;6.93;6.63;;;;;;;14.54;32.20;100994.78;5046723;28;20036;-69
2022/04/12 09:17:10;;;;;;;7.20;6.90;;;;;;;13.13;34.55;100986.88;5060734;28;20087;-70
2022/04/12 09:19:47;;;;;;;6.43;6.13;;;;;;;11.94;36.22;100974.00;5062044;28;20044;-69
2022/04/12 09:22:18;;;;;;;6.90;6.60;;;;;;;11.50;36.13;100990.38;5064779;28;20063;-70
2022/04/12 09:24:45;;;;;;;7.20;6.90;;;;;;;13.15;34.09;100996.38;5059148;28;20167;-69
2022/04/12 09:27:13;;;;;;;7.68;7.30;;;;;;;12.63;35.01;100977.59;5050576;28;20029;-69
2022/04/12 09:29:44;;;;;;;7.18;6.88;;;;;;;11.78;35.93;100981.03;5060595;28;20111;-68
2022/04/12 09:32:13;;;;;;;7.30;7.00;;;;;;;11.36;37.10;100989.25;5058163;28;20031;-69
2022/04/12 09:34:40;;;;;;;7.00;6.70;;;;;;;12.46;35.92;100984.88;5051790;28;20048;-70
2022/04/12 09:37:25;;;;;;;6.70;6.40;;;;;;;11.89;35.86;100988.63;5071044;28;20028;-69
2022/04/12 09:40:00;;;;;;;6.90;6.60;;;;;;;11.31;36.98;100979.16;5061627;28;20492;-69
2022/04/12 09:42:44;;;;;;;7.00;6.70;;;;;;;12.37;34.94;100977.97;5053268;28;20043;-69
2022/04/12 09:45:23;;;;;;;7.05;6.75;;;;;;;11.72;35.40;100986.19;5053774;28;20029;-68
2022/04/12 09:47:53;;;;;;;6.60;6.30;;;;;;;11.13;36.28;100975.84;5049807;28;20426;-69
2022/04/12 09:50:21;;;;;;;6.70;6.40;;;;;;;10.99;36.55;100977.34;5067560;28;20031;-69
2022/04/12 09:53:06;;;;;;;6.68;6.38;;;;;;;12.51;35.01;100974.53;5047490;28;20408;-70
2022/04/12 09:55:41;;;;;;;7.03;6.72;;;;;;;11.42;36.18;100963.84;5051780;28;20504;-69
2022/04/12 09:58:12;;;;;;;6.38;6.07;;;;;;;10.77;36.61;100965.53;5055650;28;20055;-68
2022/04/12 10:00:39;;;;;;;9.07;8.60;;;;;;;11.02;35.72;100979.66;5053845;28;20025;-66
2022/04/12 10:03:12;;;;;;;6.72;6.43;;;;;;;11.44;35.03;100975.13;5049911;28;20523;-69
2022/04/12 10:05:38;;;;;;;6.70;6.40;;;;;;;12.05;34.36;100957.69;5051506;28;20040;-69
2022/04/12 10:08:05;;;;;;;7.07;6.78;;;;;;;11.10;35.57;100962.91;5054322;28;20021;-70
2022/04/12 10:10:31;;;;;;;7.18;6.88;;;;;;;10.98;36.74;100972.19;5054356;28;20029;-69
2022/04/12 10:12:58;;;;;;;7.05;6.75;;;;;;;10.63;36.17;100974.16;5045755;28;20024;-67
2022/04/12 10:15:26;;;;;;;7.22;6.93;;;;;;;10.69;35.84;100972.69;5052000;28;20041;-69
2022/04/12 10:17:52;;;;;;;6.80;6.50;;;;;;;10.71;34.69;100976.00;5044587;28;20028;-67
2022/04/12 10:20:19;;;;;;;7.40;7.10;;;;;;;10.56;35.58;100965.19;5049871;28;20043;-69
2022/04/12 10:22:46;;;;;;;6.80;6.50;;;;;;;11.52;34.83;100960.00;5048756;28;20029;-68
2022/04/12 10:25:23;;;;;;;7.57;7.22;;;;;;;11.45;35.18;100956.34;5051446;28;20118;-70
2022/04/12 10:27:53;;;;;;;7.13;6.82;;;;;;;11.86;34.79;100964.25;5061602;28;20435;-71
2022/04/12 10:30:18;;;;;;;7.30;7.00;;;;;;;11.58;34.69;100958.47;5061731;28;20029;-69
2022/04/12 10:33:07;;;;;;;7.18;6.88;;;;;;;11.61;33.24;100960.81;5057158;28;20035;-69
2022/04/12 10:35:45;;;;;;;7.03;6.72;;;;;;;11.49;33.14;100943.56;5046685;28;20037;-69
2022/04/12 10:38:11;;;;;;;6.90;6.60;;;;;;;11.97;32.57;100942.59;5043873;28;20397;-68
2022/04/12 10:40:42;;;;;;;6.82;6.53;;;;;;;11.91;33.61;100958.41;5047402;28;20029;-69
2022/04/12 10:43:10;;;;;;;6.70;6.40;;;;;;;11.47;34.59;100954.38;5060289;28;20078;-71
2022/04/12 10:45:37;;;;;;;6.45;6.15;;;;;;;10.95;35.31;100969.88;5069043;28;20028;-70
2022/04/12 10:48:03;;;;;;;7.25;6.95;;;;;;;10.84;34.95;100976.34;5062980;28;20034;-71
2022/04/12 10:50:41;;;;;;;6.00;5.80;;;;;;;10.86;34.01;100971.69;5056518;28;20062;-71
2022/04/12 10:53:07;;;;;;;6.55;6.25;;;;;;;11.02;34.71;100969.06;5049842;28;20033;-71
2022/04/12 10:55:43;;;;;;;6.80;6.50;;;;;;;11.11;34.90;100964.56;5052719;28;20040;-71
2022/04/12 10:58:30;;;;;;;6.95;6.65;;;;;;;11.51;34.50;100979.59;5037293;28;20086;-67
2022/04/12 11:00:55;;;;;;;6.60;6.30;;;;;;;11.38;34.01;100958.03;5052341;28;20082;-68
2022/04/12 11:03:41;;;;;;;6.50;6.20;;;;;;;11.34;33.05;100962.88;5065410;28;20036;-67
2022/04/12 11:06:14;;;;;;;6.43;6.13;;;;;;;12.00;31.94;100955.53;5034051;28;20036;-67
2022/04/12 11:08:43;;;;;;;7.13;6.82;;;;;;;11.72;32.04;100963.09;5049710;28;20009;-66
2022/04/12 11:11:10;;;;;;;6.63;6.32;;;;;;;11.47;33.69;100956.22;5042815;28;20079;-68
2022/04/12 11:13:35;;;;;;;6.65;6.35;;;;;;;11.32;34.41;100969.34;5050991;28;20025;-69
2022/04/12 11:16:06;;;;;;;6.32;6.03;;;;;;;11.13;34.58;100975.00;5054689;28;20201;-68
2022/04/12 11:18:51;;;;;;;7.30;7.00;;;;;;;11.21;33.79;100983.78;5056479;28;20040;-68
2022/04/12 11:21:19;;;;;;;7.20;6.90;;;;;;;10.98;33.46;100977.50;5061214;28;20021;-69
2022/04/12 11:23:59;;;;;;;6.43;6.13;;;;;;;10.71;33.72;100978.66;5068665;28;20051;-69
2022/04/12 11:26:33;;;;;;;6.32;6.03;;;;;;;10.92;33.76;100973.69;5059457;28;20021;-69
2022/04/12 11:28:58;;;;;;;6.20;5.90;;;;;;;10.84;34.79;100979.00;5058856;28;20032;-71
2022/04/12 11:31:24;;;;;;;7.07;6.78;;;;;;;10.73;36.14;100974.03;5047270;28;20094;-71